createdAt,value
2022-10-18T00:02:08.730Z,15.30
2022-10-18T00:04:50.149Z,15.40
2022-10-18T00:07:18.309Z,15.40
2022-10-18T00:12:36.762Z,15.40
2022-10-18T00:15:09.578Z,15.40
2022-10-18T00:17:50.606Z,15.40
2022-10-18T00:20:24.684Z,15.40
2022-10-18T00:23:00.390Z,15.40
2022-10-18T00:25:38.116Z,15.40
2022-10-18T00:28:11.805Z,15.40
2022-10-18T00:30:40.835Z,15.40
2022-10-18T00:33:12.406Z,15.40
2022-10-18T00:38:24.868Z,15.40
2022-10-18T00:40:57.912Z,15.40
2022-10-18T00:43:30.732Z,15.40
2022-10-18T00:45:58.460Z,15.40
2022-10-18T00:48:27.581Z,15.40
2022-10-18T00:53:57.780Z,15.40
2022-10-18T00:56:27.793Z,15.40
2022-10-18T00:58:58.957Z,15.40
2022-10-18T01:01:33.622Z,15.40
2022-10-18T01:07:12.581Z,15.30
2022-10-18T01:10:25.212Z,15.30
2022-10-18T01:13:16.396Z,15.30
2022-10-18T01:16:13.978Z,15.30
2022-10-18T01:19:19.364Z,15.30
2022-10-18T01:22:09.935Z,15.20
2022-10-18T01:25:14.873Z,15.20
2022-10-18T01:28:41.625Z,15.20
2022-10-18T01:31:46.247Z,15.20
2022-10-18T01:34:23.035Z,15.20
2022-10-18T01:37:06.286Z,15.20
2022-10-18T01:39:44.216Z,15.20
2022-10-18T01:42:15.450Z,15.20
2022-10-18T01:44:48.396Z,15.20
2022-10-18T01:47:24.589Z,15.20
2022-10-18T01:50:15.948Z,15.20
2022-10-18T01:53:00.406Z,15.20
2022-10-18T01:55:45.678Z,15.20
2022-10-18T01:58:42.928Z,15.20
2022-10-18T02:05:40.732Z,15.20
2022-10-18T02:08:43.400Z,15.20
2022-10-18T02:11:21.283Z,15.20
2022-10-18T02:17:08.839Z,15.10
2022-10-18T02:19:51.882Z,15.10
2022-10-18T02:22:25.312Z,15.10
2022-10-18T02:25:02.795Z,15.10
2022-10-18T02:27:45.547Z,15.10
2022-10-18T02:30:29.895Z,15.10
2022-10-18T02:33:32.016Z,15.00
2022-10-18T02:36:07.638Z,15.00
2022-10-18T02:38:37.454Z,15.00
2022-10-18T02:41:10.501Z,15.00
2022-10-18T02:43:56.878Z,15.00
2022-10-18T02:46:32.562Z,15.00
2022-10-18T02:49:01.629Z,15.00
2022-10-18T02:51:43.797Z,15.00
2022-10-18T02:54:13.644Z,15.00
2022-10-18T02:56:56.647Z,15.10
2022-10-18T02:59:26.441Z,15.10
2022-10-18T03:02:11.111Z,15.10
2022-10-18T03:04:38.018Z,15.10
2022-10-18T03:07:04.968Z,15.10
2022-10-18T03:09:32.902Z,15.10
2022-10-18T03:11:59.913Z,15.10
2022-10-18T03:14:40.321Z,15.10
2022-10-18T03:17:11.436Z,15.10
2022-10-18T03:19:42.191Z,15.10
2022-10-18T03:22:12.648Z,15.10
2022-10-18T03:25:09.081Z,15.10
2022-10-18T03:27:48.213Z,15.10
2022-10-18T03:30:22.486Z,15.10
2022-10-18T03:33:08.257Z,15.10
2022-10-18T03:38:20.989Z,15.10
2022-10-18T03:41:01.112Z,15.10
2022-10-18T03:44:04.149Z,15.10
2022-10-18T03:49:28.902Z,15.10
2022-10-18T03:54:44.260Z,15.10
2022-10-18T03:59:56.327Z,15.10
2022-10-18T04:02:25.474Z,15.00
2022-10-18T04:04:52.604Z,15.00
2022-10-18T04:07:19.369Z,15.00
2022-10-18T04:09:46.198Z,14.90
2022-10-18T04:12:13.196Z,15.00
2022-10-18T04:14:47.816Z,14.90
2022-10-18T04:17:22.005Z,14.90
2022-10-18T04:19:51.520Z,14.90
2022-10-18T04:22:27.132Z,14.90
2022-10-18T04:25:04.416Z,14.80
2022-10-18T04:27:39.597Z,14.80
2022-10-18T04:30:22.943Z,14.80
2022-10-18T04:32:57.124Z,14.90
2022-10-18T04:35:32.568Z,14.90
2022-10-18T04:38:18.639Z,14.90
2022-10-18T04:40:48.643Z,14.90
2022-10-18T04:43:19.416Z,14.90
2022-10-18T04:46:05.290Z,14.90
2022-10-18T04:48:41.251Z,14.90
2022-10-18T04:51:14.893Z,14.90
2022-10-18T04:53:52.140Z,14.90
2022-10-18T04:56:32.304Z,14.90
2022-10-18T05:01:58.792Z,14.90
2022-10-18T05:07:38.454Z,14.90
2022-10-18T05:10:16.855Z,15.00
2022-10-18T05:12:57.659Z,15.00
2022-10-18T05:15:25.680Z,14.90
2022-10-18T05:18:04.373Z,14.90
2022-10-18T05:20:48.908Z,14.90
2022-10-18T05:23:25.421Z,14.90
2022-10-18T05:26:10.834Z,14.90
2022-10-18T05:28:46.489Z,14.90
2022-10-18T05:31:27.817Z,14.90
2022-10-18T05:34:10.823Z,14.90
2022-10-18T05:36:51.624Z,14.90
2022-10-18T05:39:27.594Z,14.90
2022-10-18T05:42:38.361Z,14.90
2022-10-18T05:45:18.958Z,14.90
2022-10-18T05:47:57.742Z,14.90
2022-10-18T05:50:29.093Z,14.90
2022-10-18T05:53:35.824Z,14.90
2022-10-18T05:56:03.445Z,14.90
2022-10-18T05:58:30.236Z,15.00
2022-10-18T06:01:01.099Z,15.00
2022-10-18T06:03:28.469Z,15.00
2022-10-18T06:06:10.196Z,15.00
2022-10-18T06:08:38.456Z,15.00
2022-10-18T06:11:14.189Z,15.00
2022-10-18T06:13:45.931Z,15.00
2022-10-18T06:16:14.148Z,15.00
2022-10-18T06:18:41.759Z,15.00
2022-10-18T06:21:09.619Z,15.00
2022-10-18T06:23:36.435Z,15.10
2022-10-18T06:26:05.690Z,15.10
2022-10-18T06:28:35.557Z,15.10
2022-10-18T06:31:03.180Z,15.10
2022-10-18T06:33:31.560Z,15.10
2022-10-18T06:36:00.636Z,15.10
2022-10-18T06:38:28.491Z,15.20
2022-10-18T06:40:57.919Z,15.20
2022-10-18T06:43:25.363Z,15.20
2022-10-18T06:45:53.296Z,15.20
2022-10-18T06:48:21.143Z,15.20
2022-10-18T06:50:59.019Z,15.20
2022-10-18T06:53:27.230Z,15.20
2022-10-18T06:56:03.301Z,15.20
2022-10-18T06:58:30.844Z,15.20
2022-10-18T07:00:58.023Z,15.10
2022-10-18T07:03:24.942Z,15.10
2022-10-18T07:05:51.830Z,15.10
2022-10-18T07:08:19.087Z,15.10
2022-10-18T07:10:57.869Z,15.10
2022-10-18T07:13:32.545Z,15.10
2022-10-18T07:16:14.144Z,15.10
2022-10-18T07:18:47.031Z,15.10
2022-10-18T07:21:16.580Z,15.10
2022-10-18T07:23:46.305Z,15.10
2022-10-18T07:26:22.926Z,15.10
2022-10-18T07:28:54.648Z,15.10
2022-10-18T07:31:22.952Z,15.10
2022-10-18T07:33:50.415Z,15.10
2022-10-18T07:36:17.366Z,15.00
2022-10-18T07:38:44.822Z,15.00
2022-10-18T07:41:13.299Z,15.00
2022-10-18T07:43:48.310Z,15.10
2022-10-18T07:46:16.068Z,15.10
2022-10-18T07:48:43.483Z,15.10
2022-10-18T07:51:10.854Z,15.10
2022-10-18T07:53:37.883Z,15.10
2022-10-18T07:56:15.711Z,15.10
2022-10-18T07:58:46.509Z,15.10
2022-10-18T08:01:14.531Z,15.10
2022-10-18T08:03:42.368Z,15.10
2022-10-18T08:06:11.012Z,15.10
2022-10-18T08:08:39.372Z,15.10
2022-10-18T08:11:12.612Z,15.00
2022-10-18T08:13:39.562Z,15.10
2022-10-18T08:16:12.467Z,15.10
2022-10-18T08:18:39.613Z,15.10
2022-10-18T08:21:08.475Z,15.10
2022-10-18T08:23:36.324Z,15.20
2022-10-18T08:26:08.182Z,15.30
2022-10-18T08:28:38.310Z,15.50
2022-10-18T08:31:11.879Z,15.60
2022-10-18T08:33:39.772Z,15.70
2022-10-18T08:36:08.761Z,15.70
2022-10-18T08:38:37.433Z,15.70
2022-10-18T08:41:32.204Z,15.70
2022-10-18T08:44:07.389Z,15.70
2022-10-18T08:46:37.198Z,15.60
2022-10-18T08:49:05.684Z,15.60
2022-10-18T08:51:46.457Z,15.60
2022-10-18T08:54:31.650Z,15.60
2022-10-18T08:57:00.928Z,15.60
2022-10-18T08:59:37.752Z,15.70
2022-10-18T09:02:10.470Z,15.70
2022-10-18T09:04:45.763Z,15.80
2022-10-18T09:07:46.305Z,15.90
2022-10-18T09:10:36.660Z,15.80
2022-10-18T09:13:22.122Z,15.80
2022-10-18T09:16:07.919Z,15.80
2022-10-18T09:18:54.713Z,15.80
2022-10-18T09:21:30.280Z,15.80
2022-10-18T09:24:14.269Z,15.90
2022-10-18T09:26:49.119Z,15.90
2022-10-18T09:29:38.057Z,16.00
2022-10-18T09:32:25.857Z,16.10
2022-10-18T09:35:13.557Z,16.20
2022-10-18T09:37:41.345Z,16.40
2022-10-18T09:40:27.961Z,16.40
2022-10-18T09:43:01.323Z,16.30
2022-10-18T09:45:32.218Z,16.40
2022-10-18T09:48:12.709Z,16.30
2022-10-18T09:50:46.449Z,16.20
2022-10-18T09:53:25.852Z,16.30
2022-10-18T09:56:18.629Z,16.30
2022-10-18T09:58:51.386Z,16.30
2022-10-18T10:01:26.448Z,16.40
2022-10-18T10:03:53.659Z,16.40
2022-10-18T10:06:31.452Z,16.30
2022-10-18T10:09:06.404Z,16.30
2022-10-18T10:11:40.138Z,16.20
2022-10-18T10:16:52.548Z,16.20
2022-10-18T10:19:23.713Z,16.30
2022-10-18T10:21:54.532Z,16.40
2022-10-18T10:24:28.882Z,16.40
2022-10-18T10:27:05.126Z,16.40
2022-10-18T10:29:46.969Z,16.20
2022-10-18T10:32:15.863Z,16.20
2022-10-18T10:34:44.800Z,16.30
2022-10-18T10:37:30.133Z,16.20
2022-10-18T10:40:18.461Z,16.10
2022-10-18T10:43:39.240Z,16.00
2022-10-18T10:46:20.307Z,16.20
2022-10-18T10:48:57.038Z,16.30
2022-10-18T10:51:38.927Z,16.40
2022-10-18T10:54:17.758Z,16.50
2022-10-18T10:57:01.495Z,16.60
2022-10-18T10:59:32.385Z,16.60
2022-10-18T11:02:14.260Z,16.60
2022-10-18T11:04:42.536Z,16.70
2022-10-18T11:07:09.271Z,16.70
2022-10-18T11:09:44.686Z,16.80
2022-10-18T11:12:29.644Z,16.80
2022-10-18T11:15:12.143Z,16.90
2022-10-18T11:18:05.766Z,16.80
2022-10-18T11:20:37.924Z,16.90
2022-10-18T11:23:17.935Z,17.00
2022-10-18T11:26:04.621Z,17.00
2022-10-18T11:28:51.782Z,17.10
2022-10-18T11:31:46.403Z,17.10
2022-10-18T11:34:38.150Z,17.20
2022-10-18T11:37:38.360Z,17.20
2022-10-18T11:40:42.263Z,17.20
2022-10-18T11:43:20.931Z,17.20
2022-10-18T11:46:11.670Z,17.20
2022-10-18T11:49:14.922Z,17.30
2022-10-18T11:52:06.692Z,17.30
2022-10-18T11:55:08.987Z,17.40
2022-10-18T11:57:54.296Z,17.30
2022-10-18T12:03:33.481Z,17.40
2022-10-18T12:06:19.730Z,17.40
2022-10-18T12:08:53.139Z,17.40
2022-10-18T12:11:25.095Z,17.50
2022-10-18T12:13:57.215Z,17.60
2022-10-18T12:16:49.595Z,17.60
2022-10-18T12:19:25.417Z,17.60
2022-10-18T12:21:57.053Z,17.50
2022-10-18T12:24:28.609Z,17.60
2022-10-18T12:27:00.147Z,17.60
2022-10-18T12:29:59.379Z,17.60
2022-10-18T12:32:32.381Z,17.60
2022-10-18T12:35:07.231Z,17.60
2022-10-18T12:37:36.991Z,17.60
2022-10-18T12:40:15.555Z,17.60
2022-10-18T12:42:48.875Z,17.60
2022-10-18T12:45:35.324Z,17.60
2022-10-18T12:48:06.340Z,17.60
2022-10-18T12:50:35.203Z,17.60
2022-10-18T12:53:05.059Z,17.70
2022-10-18T12:55:36.805Z,17.70
2022-10-18T12:58:14.277Z,17.70
2022-10-18T13:00:43.858Z,17.70
2022-10-18T13:03:13.268Z,17.70
2022-10-18T13:05:54.360Z,17.70
2022-10-18T13:08:31.575Z,17.70
2022-10-18T13:11:10.561Z,17.60
2022-10-18T13:13:40.327Z,17.60
2022-10-18T13:16:22.882Z,17.60
2022-10-18T13:19:22.045Z,17.60
2022-10-18T13:22:19.705Z,17.50
2022-10-18T13:25:11.288Z,17.50
2022-10-18T13:27:43.305Z,17.50
2022-10-18T13:30:21.941Z,17.50
2022-10-18T13:33:39.942Z,17.40
2022-10-18T13:36:23.645Z,17.40
2022-10-18T13:38:53.328Z,17.40
2022-10-18T13:41:26.311Z,17.40
2022-10-18T13:43:54.300Z,17.40
2022-10-18T13:46:34.330Z,17.40
2022-10-18T13:49:20.165Z,17.40
2022-10-18T13:52:02.367Z,17.30
2022-10-18T13:54:54.155Z,17.20
2022-10-18T13:57:24.048Z,17.30
2022-10-18T14:00:33.782Z,17.20
2022-10-18T14:03:51.815Z,17.20
2022-10-18T14:06:22.682Z,17.20
2022-10-18T14:09:26.331Z,17.20
2022-10-18T14:12:27.694Z,17.20
2022-10-18T14:15:17.781Z,17.20
2022-10-18T14:17:46.634Z,17.10
2022-10-18T14:20:13.620Z,17.10
2022-10-18T14:22:49.655Z,17.10
2022-10-18T14:25:29.949Z,17.10
2022-10-18T14:28:12.271Z,17.20
2022-10-18T14:31:12.965Z,17.10
2022-10-18T14:33:46.609Z,17.10
2022-10-18T14:36:20.777Z,17.00
2022-10-18T14:38:50.639Z,17.00
2022-10-18T14:41:20.072Z,17.00
2022-10-18T14:43:48.195Z,16.90
2022-10-18T14:46:24.049Z,16.90
2022-10-18T14:49:04.412Z,16.90
2022-10-18T14:51:35.554Z,16.90
2022-10-18T14:54:02.941Z,16.90
2022-10-18T14:56:31.706Z,16.80
2022-10-18T14:59:02.692Z,16.70
2022-10-18T15:01:32.255Z,16.70
2022-10-18T15:04:06.640Z,16.60
2022-10-18T15:06:33.736Z,16.60
2022-10-18T15:09:04.261Z,16.60
2022-10-18T15:11:31.753Z,16.60
2022-10-18T15:14:03.165Z,16.60
2022-10-18T15:16:31.395Z,16.60
2022-10-18T15:19:14.364Z,16.60
2022-10-18T15:22:19.757Z,16.50
2022-10-18T15:24:43.787Z,16.50
2022-10-18T15:27:14.899Z,16.50
2022-10-18T15:29:43.584Z,16.40
2022-10-18T15:32:27.232Z,16.40
2022-10-18T15:34:54.855Z,16.30
2022-10-18T15:37:45.012Z,16.30
2022-10-18T15:40:23.844Z,16.20
2022-10-18T15:42:52.839Z,16.10
2022-10-18T15:45:25.527Z,16.10
2022-10-18T15:48:09.452Z,16.10
2022-10-18T15:50:44.854Z,16.00
2022-10-18T15:53:21.044Z,15.90
2022-10-18T15:55:55.628Z,15.80
2022-10-18T15:58:37.146Z,15.80
2022-10-18T16:01:04.532Z,15.70
2022-10-18T16:03:36.221Z,15.60
2022-10-18T16:06:06.412Z,15.50
2022-10-18T16:08:40.933Z,15.40
2022-10-18T16:11:12.477Z,15.30
2022-10-18T16:13:39.236Z,15.20
2022-10-18T16:16:06.056Z,15.20
2022-10-18T16:18:33.719Z,15.10
2022-10-18T16:21:01.908Z,15.00
2022-10-18T16:23:29.416Z,14.90
2022-10-18T16:25:56.494Z,14.80
2022-10-18T16:28:25.538Z,14.70
2022-10-18T16:31:00.506Z,14.60
2022-10-18T16:33:27.862Z,14.40
2022-10-18T16:35:54.783Z,14.30
2022-10-18T16:38:27.236Z,14.20
2022-10-18T16:40:56.893Z,14.20
2022-10-18T16:43:24.283Z,14.10
2022-10-18T16:45:52.922Z,14.00
2022-10-18T16:48:24.827Z,13.90
2022-10-18T16:50:53.734Z,13.90
2022-10-18T16:53:23.398Z,13.70
2022-10-18T16:55:58.884Z,13.70
2022-10-18T16:58:26.632Z,13.60
2022-10-18T17:00:53.822Z,13.50
2022-10-18T17:03:21.098Z,13.40
2022-10-18T17:05:47.885Z,13.40
2022-10-18T17:08:23.330Z,13.30
2022-10-18T17:10:54.919Z,13.20
2022-10-18T17:13:22.986Z,13.20
2022-10-18T17:15:50.489Z,13.10
2022-10-18T17:18:21.771Z,13.00
2022-10-18T17:20:49.504Z,13.00
2022-10-18T17:23:16.371Z,12.90
2022-10-18T17:25:57.453Z,12.80
2022-10-18T17:28:31.662Z,12.80
2022-10-18T17:30:58.440Z,12.80
2022-10-18T17:33:25.154Z,12.70
2022-10-18T17:35:51.840Z,12.60
2022-10-18T17:38:18.593Z,12.50
2022-10-18T17:40:45.339Z,12.50
2022-10-18T17:43:14.038Z,12.50
2022-10-18T17:45:54.434Z,12.40
2022-10-18T17:48:21.599Z,12.40
2022-10-18T17:50:48.627Z,12.30
2022-10-18T17:53:16.801Z,12.30
2022-10-18T17:55:43.967Z,12.20
2022-10-18T17:58:10.781Z,12.20
2022-10-18T18:00:37.666Z,12.20
2022-10-18T18:03:04.740Z,12.10
2022-10-18T18:05:33.507Z,12.20
2022-10-18T18:08:03.765Z,12.10
2022-10-18T18:10:33.488Z,12.10
2022-10-18T18:13:01.337Z,12.10
2022-10-18T18:15:28.210Z,12.10
2022-10-18T18:17:58.420Z,12.10
2022-10-18T18:20:26.640Z,12.00
2022-10-18T18:22:53.656Z,12.00
2022-10-18T18:25:20.376Z,12.00
2022-10-18T18:27:47.109Z,11.90
2022-10-18T18:30:15.366Z,11.90
2022-10-18T18:32:42.184Z,11.80
2022-10-18T18:35:08.998Z,11.80
2022-10-18T18:37:35.832Z,11.70
2022-10-18T18:40:02.608Z,11.60
2022-10-18T18:42:29.384Z,11.60
2022-10-18T18:44:56.115Z,11.60
2022-10-18T18:47:23.527Z,11.60
2022-10-18T18:49:51.629Z,11.60
2022-10-18T18:52:18.445Z,11.60
2022-10-18T18:54:45.259Z,11.50
2022-10-18T18:57:11.953Z,11.40
2022-10-18T18:59:40.679Z,11.50
2022-10-18T19:02:08.977Z,11.40
2022-10-18T19:04:36.335Z,11.40
2022-10-18T19:07:03.110Z,11.40
2022-10-18T19:09:30.015Z,11.40
2022-10-18T19:11:56.863Z,11.40
2022-10-18T19:14:25.454Z,11.40
2022-10-18T19:16:54.658Z,11.30
2022-10-18T19:19:23.186Z,11.30
2022-10-18T19:21:55.446Z,11.30
2022-10-18T19:24:23.784Z,11.30
2022-10-18T19:26:52.570Z,11.30
2022-10-18T19:29:27.227Z,11.20
2022-10-18T19:31:56.723Z,11.10
2022-10-18T19:34:25.183Z,11.10
2022-10-18T19:36:52.164Z,11.00
2022-10-18T19:39:27.714Z,11.00
2022-10-18T19:41:56.975Z,10.90
2022-10-18T19:44:27.360Z,10.90
2022-10-18T19:46:54.844Z,10.90
2022-10-18T19:49:21.583Z,10.90
2022-10-18T19:51:49.293Z,10.90
2022-10-18T19:54:16.589Z,10.90
2022-10-18T19:56:43.547Z,10.90
2022-10-18T19:59:15.300Z,10.80
2022-10-18T20:01:43.003Z,10.80
2022-10-18T20:04:11.458Z,10.80
2022-10-18T20:06:38.989Z,10.70
2022-10-18T20:09:08.022Z,10.70
2022-10-18T20:11:35.025Z,10.70
2022-10-18T20:14:01.866Z,10.70
2022-10-18T20:16:31.017Z,10.70
2022-10-18T20:19:03.379Z,10.60
2022-10-18T20:21:35.471Z,10.60
2022-10-18T20:24:06.302Z,10.60
2022-10-18T20:26:34.519Z,10.60
2022-10-18T20:29:01.632Z,10.60
2022-10-18T20:31:30.806Z,10.60
2022-10-18T20:34:00.849Z,10.60
2022-10-18T20:36:29.333Z,10.60
2022-10-18T20:38:56.547Z,10.60
2022-10-18T20:41:27.401Z,10.50
2022-10-18T20:43:56.956Z,10.50
2022-10-18T20:46:24.315Z,10.40
2022-10-18T20:48:52.846Z,10.40
2022-10-18T20:51:20.609Z,10.40
2022-10-18T20:53:47.728Z,10.40
2022-10-18T20:56:17.204Z,10.30
2022-10-18T20:58:45.116Z,10.20
2022-10-18T21:01:21.166Z,10.20
2022-10-18T21:03:49.649Z,10.20
2022-10-18T21:06:22.002Z,10.20
2022-10-18T21:08:57.154Z,10.10
2022-10-18T21:11:25.536Z,10.20
2022-10-18T21:13:54.515Z,10.10
2022-10-18T21:16:21.298Z,10.10
2022-10-18T21:18:48.647Z,10.10
2022-10-18T21:21:20.767Z,10.10
2022-10-18T21:23:47.611Z,10.10
2022-10-18T21:26:16.895Z,10.00
2022-10-18T21:28:43.861Z,10.00
2022-10-18T21:31:16.973Z,10.00
2022-10-18T21:33:45.719Z,9.90
2022-10-18T21:36:13.570Z,9.90
2022-10-18T21:38:43.203Z,9.90
2022-10-18T21:41:11.324Z,9.90
2022-10-18T21:43:46.293Z,9.80
2022-10-18T21:46:14.435Z,9.80
2022-10-18T21:48:46.196Z,9.70
2022-10-18T21:51:15.237Z,9.80
2022-10-18T21:53:47.916Z,9.70
2022-10-18T21:56:24.385Z,9.70
2022-10-18T21:58:51.341Z,9.80
2022-10-18T22:01:27.038Z,9.70
2022-10-18T22:03:55.939Z,9.70
2022-10-18T22:06:23.101Z,9.60
2022-10-18T22:08:55.305Z,9.60
2022-10-18T22:11:25.153Z,9.60
2022-10-18T22:13:53.229Z,9.50
2022-10-18T22:16:20.342Z,9.50
2022-10-18T22:18:48.582Z,9.50
2022-10-18T22:21:17.212Z,9.40
2022-10-18T22:23:49.512Z,9.50
2022-10-18T22:26:22.356Z,9.50
2022-10-18T22:28:55.331Z,9.40
2022-10-18T22:31:24.076Z,9.30
2022-10-18T22:33:59.145Z,9.30
2022-10-18T22:36:27.082Z,9.30
2022-10-18T22:38:53.911Z,9.30
2022-10-18T22:41:20.845Z,9.20
2022-10-18T22:43:49.522Z,9.20
2022-10-18T22:46:16.317Z,9.20
2022-10-18T22:48:43.929Z,9.20
2022-10-18T22:51:11.317Z,9.20
2022-10-18T22:53:39.514Z,9.10
2022-10-18T22:56:06.755Z,9.10
2022-10-18T22:58:33.678Z,9.10
2022-10-18T23:01:09.763Z,9.10
2022-10-18T23:03:37.533Z,9.00
2022-10-18T23:06:05.825Z,9.00
2022-10-18T23:08:33.188Z,9.00
2022-10-18T23:11:00.163Z,9.00
2022-10-18T23:13:28.369Z,8.90
2022-10-18T23:16:04.366Z,8.90
2022-10-18T23:18:32.594Z,8.90
2022-10-18T23:21:07.929Z,8.90
2022-10-18T23:23:36.626Z,8.80
2022-10-18T23:26:05.325Z,8.80
2022-10-18T23:28:40.557Z,8.70
2022-10-18T23:31:08.491Z,8.70
2022-10-18T23:33:36.011Z,8.70
2022-10-18T23:36:03.800Z,8.70
2022-10-18T23:38:31.785Z,8.60
2022-10-18T23:40:58.577Z,8.50
2022-10-18T23:43:25.372Z,8.50
2022-10-18T23:45:52.140Z,8.50
2022-10-18T23:48:19.020Z,8.40
2022-10-18T23:50:46.012Z,8.40
2022-10-18T23:53:12.847Z,8.40
2022-10-18T23:55:39.659Z,8.40
2022-10-18T23:58:06.338Z,8.40
